Time;durP1;ratioP1;P1;durP2;ratioP2;P2;SDS_P1;SDS_P2;PMS_P1;PMS_P2;Temp;Humidity;BMP_temperature;BMP_pressure;BME280_temperature;BME280_humidity;BME280_pressure;Samples;Min_cycle;Max_cycle;Signal;HPM_P1;HPM_P2
2022/05/02 00:01:33;;;;;;;9.32;5.20;;;;;;;12.11;94.62;100068.91;6220692;28;20053;-74
2022/05/02 00:04:34;;;;;;;7.55;5.47;;;;;;;12.14;91.74;100067.84;6222052;28;20042;-73
2022/05/02 00:07:35;;;;;;;9.30;6.10;;;;;;;12.15;90.92;100061.66;6204638;28;20046;-76
2022/05/02 00:10:37;;;;;;;11.77;5.53;;;;;;;12.11;88.94;100061.06;6206281;28;20053;-76
2022/05/02 00:13:37;;;;;;;13.07;5.50;;;;;;;12.00;88.70;100061.75;6225475;28;20049;-76
2022/05/02 00:16:39;;;;;;;10.48;5.70;;;;;;;12.00;91.89;100050.47;6225566;28;20062;-73
2022/05/02 00:19:39;;;;;;;9.85;5.93;;;;;;;11.95;90.70;100058.63;6209045;28;20057;-74
2022/05/02 00:22:40;;;;;;;8.30;5.60;;;;;;;11.99;90.88;100051.41;6209053;28;20046;-73
2022/05/02 00:25:41;;;;;;;9.43;5.90;;;;;;;11.92;92.23;100045.72;6225301;28;20050;-74
2022/05/02 00:28:42;;;;;;;8.18;6.00;;;;;;;11.95;91.56;100057.78;6225091;28;20058;-76
2022/05/02 00:31:45;;;;;;;13.30;6.13;;;;;;;11.93;91.49;100052.66;6225162;28;20128;-76
2022/05/02 00:34:46;;;;;;;12.55;5.95;;;;;;;11.71;90.57;100058.41;6225393;28;20057;-76
2022/05/02 00:37:47;;;;;;;9.77;6.03;;;;;;;11.63;90.18;100060.69;6224812;28;20065;-76
2022/05/02 00:40:48;;;;;;;9.93;5.72;;;;;;;11.60;90.90;100059.13;6225289;28;20053;-73
2022/05/02 00:43:54;;;;;;;9.75;6.50;;;;;;;11.52;91.25;100055.34;6224724;28;20046;-73
2022/05/02 00:46:56;;;;;;;11.20;6.22;;;;;;;11.49;90.46;100057.22;6225902;28;20041;-73
2022/05/02 00:49:57;;;;;;;9.50;6.15;;;;;;;11.58;89.78;100058.38;6224914;28;20084;-76
2022/05/02 00:52:58;;;;;;;11.18;6.10;;;;;;;11.60;91.22;100055.69;6224629;28;20042;-76
2022/05/02 00:56:00;;;;;;;9.05;5.43;;;;;;;11.57;90.41;100059.34;6224695;28;20038;-76
2022/05/02 00:59:01;;;;;;;8.23;5.82;;;;;;;11.49;90.10;100065.06;6225838;28;20042;-75
2022/05/02 01:02:06;;;;;;;6.95;5.30;;;;;;;11.50;88.61;100063.28;6224481;28;20092;-75
2022/05/02 01:05:07;;;;;;;8.80;5.53;;;;;;;11.51;88.78;100067.59;6224528;28;20486;-75
2022/05/02 01:08:08;;;;;;;9.48;5.70;;;;;;;11.53;88.91;100063.09;6224251;28;20053;-76
2022/05/02 01:11:09;;;;;;;8.48;5.68;;;;;;;11.58;94.84;100068.84;6225556;28;20042;-76
2022/05/02 01:14:09;;;;;;;8.15;5.65;;;;;;;11.54;91.94;100075.22;6240633;28;20053;-76
2022/05/02 01:17:11;;;;;;;9.18;5.90;;;;;;;11.30;89.76;100059.31;6208017;28;20076;-73
2022/05/02 01:20:15;;;;;;;7.87;6.13;;;;;;;11.37;92.63;100067.63;6225248;28;20414;-74
2022/05/02 01:23:16;;;;;;;8.57;6.00;;;;;;;11.32;90.84;100077.53;6223283;28;20050;-74
2022/05/02 01:26:18;;;;;;;10.10;6.22;;;;;;;11.36;90.95;100076.38;6225064;28;20102;-73
2022/05/02 01:29:19;;;;;;;10.05;5.97;;;;;;;11.45;92.46;100081.88;6223947;28;20069;-76
2022/05/02 01:32:20;;;;;;;8.50;5.75;;;;;;;11.44;95.66;100077.56;6223679;28;20561;-76
2022/05/02 01:35:21;;;;;;;12.82;5.75;;;;;;;11.40;96.30;100076.09;6223707;28;20092;-74
2022/05/02 01:38:22;;;;;;;9.13;5.60;;;;;;;11.32;92.86;100070.50;6191200;28;20053;-73
2022/05/02 01:41:23;;;;;;;9.10;5.85;;;;;;;11.31;97.59;100066.25;6223578;28;20069;-76
2022/05/02 01:44:24;;;;;;;9.40;6.40;;;;;;;11.31;96.90;100068.03;6223556;28;20038;-76
2022/05/02 01:47:25;;;;;;;11.13;6.60;;;;;;;11.27;97.96;100065.59;6224651;28;20049;-73
2022/05/02 01:50:25;;;;;;;8.50;5.93;;;;;;;11.25;98.03;100070.06;6224524;28;20068;-73
2022/05/02 01:53:27;;;;;;;7.97;5.78;;;;;;;11.22;96.70;100064.19;6206995;28;20048;-73
2022/05/02 01:56:28;;;;;;;12.27;6.35;;;;;;;11.16;96.28;100067.19;6224299;28;20034;-76
2022/05/02 01:59:28;;;;;;;10.07;6.20;;;;;;;11.13;97.27;100049.97;6207086;28;20041;-76
2022/05/02 02:02:29;;;;;;;8.48;6.38;;;;;;;11.08;98.01;100057.25;6223245;28;20050;-73
2022/05/02 02:05:48;;;;;;;10.05;6.07;;;;;;;11.03;99.12;100048.88;6206766;28;20081;-73
2022/05/02 02:08:50;;;;;;;10.50;6.28;;;;;;;10.98;98.62;100061.38;6222929;28;20433;-76
2022/05/02 02:11:51;;;;;;;13.15;7.22;;;;;;;10.85;96.95;100063.88;6223057;28;20046;-75
2022/05/02 02:14:52;;;;;;;10.27;6.82;;;;;;;10.73;97.79;100062.91;6223967;28;20072;-76
2022/05/02 02:17:53;;;;;;;9.77;6.90;;;;;;;10.68;95.62;100054.50;6206694;28;20391;-74
2022/05/02 02:20:55;;;;;;;9.80;6.38;;;;;;;10.73;97.04;100065.50;6222903;28;20478;-73
2022/05/02 02:23:56;;;;;;;9.75;6.72;;;;;;;10.63;97.75;100056.56;6206331;28;20482;-77
2022/05/02 02:26:58;;;;;;;11.80;7.35;;;;;;;10.75;95.84;100057.56;6206214;28;20049;-73
2022/05/02 02:30:00;;;;;;;10.82;7.68;;;;;;;10.73;97.29;100059.44;6223748;28;20046;-73
2022/05/02 02:33:01;;;;;;;11.93;7.57;;;;;;;10.65;99.40;100052.09;6222431;28;20069;-73
2022/05/02 02:36:02;;;;;;;11.90;7.68;;;;;;;10.61;99.49;100058.44;6222383;28;20362;-73
2022/05/02 02:39:03;;;;;;;10.38;7.63;;;;;;;10.45;100.00;100051.53;6189930;28;20054;-73
2022/05/02 02:42:05;;;;;;;11.52;7.85;;;;;;;10.44;100.00;100056.84;6189649;28;20414;-76
2022/05/02 02:45:06;;;;;;;11.43;7.38;;;;;;;10.34;100.00;100060.94;6238669;28;20049;-73
2022/05/02 02:48:07;;;;;;;12.40;7.97;;;;;;;10.30;100.00;100069.88;6189828;28;20064;-73
2022/05/02 02:51:09;;;;;;;12.63;7.53;;;;;;;10.38;100.00;100065.03;6222266;28;20379;-74
2022/05/02 02:54:09;;;;;;;10.68;7.57;;;;;;;10.45;100.00;100061.97;6221847;28;20049;-73
2022/05/02 02:57:10;;;;;;;11.90;7.13;;;;;;;10.43;100.00;100057.78;6223023;28;20046;-76
2022/05/02 03:00:11;;;;;;;10.60;7.68;;;;;;;10.24;100.00;100069.28;6205429;28;20045;-74
2022/05/02 03:03:12;;;;;;;11.88;7.75;;;;;;;10.09;100.00;100067.59;6223051;28;20053;-73
2022/05/02 03:06:13;;;;;;;12.85;7.65;;;;;;;10.25;100.00;100065.75;6221833;28;20050;-74
2022/05/02 03:09:14;;;;;;;13.57;7.82;;;;;;;10.28;100.00;100067.31;6221522;28;20045;-73
2022/05/02 03:12:15;;;;;;;11.98;6.93;;;;;;;10.19;100.00;100071.31;6188977;28;20083;-76
2022/05/02 03:15:16;;;;;;;13.85;8.40;;;;;;;10.08;100.00;100061.50;6189141;28;20041;-73
2022/05/02 03:18:17;;;;;;;12.60;8.15;;;;;;;10.03;100.00;100062.72;6222629;28;20034;-73
2022/05/02 03:21:17;;;;;;;11.75;7.72;;;;;;;10.05;100.00;100053.88;6204867;28;20060;-73
2022/05/02 03:24:18;;;;;;;12.60;7.07;;;;;;;10.05;100.00;100063.47;6221483;28;20046;-73
2022/05/02 03:27:19;;;;;;;15.77;7.40;;;;;;;10.12;100.00;100062.16;6204802;28;20050;-73
2022/05/02 03:30:20;;;;;;;12.23;7.85;;;;;;;10.13;100.00;100060.41;6188730;28;20457;-73
2022/05/02 03:33:21;;;;;;;16.23;7.65;;;;;;;10.14;100.00;100060.31;6237499;28;20046;-74
2022/05/02 03:36:21;;;;;;;16.05;7.93;;;;;;;10.07;100.00;100059.00;6188374;28;20054;-74
2022/05/02 03:39:22;;;;;;;15.13;7.65;;;;;;;10.05;100.00;100059.09;6188666;28;20053;-76
2022/05/02 03:42:23;;;;;;;14.57;8.52;;;;;;;10.00;100.00;100058.50;6221173;28;20046;-76
2022/05/02 03:45:24;;;;;;;15.93;8.32;;;;;;;9.94;100.00;100058.03;6220696;28;20042;-75
2022/05/02 03:48:26;;;;;;;16.40;8.82;;;;;;;10.01;100.00;100068.03;6204672;28;20072;-76
2022/05/02 03:51:27;;;;;;;14.30;8.35;;;;;;;10.14;100.00;100067.31;6222264;28;20041;-73
2022/05/02 03:54:28;;;;;;;14.07;8.82;;;;;;;10.14;100.00;100072.53;6222014;28;20076;-73
2022/05/02 03:57:29;;;;;;;14.52;9.15;;;;;;;10.21;100.00;100071.22;6220862;28;20038;-73
2022/05/02 04:00:30;;;;;;;24.80;11.13;;;;;;;10.17;100.00;100078.41;6220984;28;20513;-76
2022/05/02 04:03:31;;;;;;;31.85;13.73;;;;;;;10.21;100.00;100079.03;6204602;28;20042;-76
2022/05/02 04:06:31;;;;;;;28.60;13.05;;;;;;;10.34;100.00;100081.81;6221977;28;20479;-76
2022/05/02 04:09:32;;;;;;;26.65;13.32;;;;;;;10.45;100.00;100079.38;6237296;28;20062;-73
2022/05/02 04:12:37;;;;;;;24.30;13.27;;;;;;;10.54;100.00;100068.38;6220761;28;20046;-73
2022/05/02 04:15:38;;;;;;;21.83;12.32;;;;;;;10.69;100.00;100077.06;6172360;28;20062;-73
2022/05/02 04:18:40;;;;;;;20.00;11.73;;;;;;;10.83;100.00;100077.06;6188398;28;20192;-76
2022/05/02 04:21:42;;;;;;;21.30;11.45;;;;;;;10.98;100.00;100082.25;6220657;28;20556;-76
2022/05/02 04:24:43;;;;;;;18.07;10.40;;;;;;;11.13;100.00;100070.84;6221152;28;20058;-77
2022/05/02 04:27:44;;;;;;;18.23;10.18;;;;;;;11.24;100.00;100085.84;6220666;28;20125;-73
2022/05/02 04:30:44;;;;;;;20.48;10.10;;;;;;;11.40;100.00;100083.94;6253452;28;20054;-74
2022/05/02 04:33:45;;;;;;;15.23;9.45;;;;;;;11.55;100.00;100087.34;6221584;28;20089;-73
2022/05/02 04:36:46;;;;;;;17.75;9.68;;;;;;;11.63;98.17;100089.44;6220089;28;20112;-76
2022/05/02 04:39:47;;;;;;;14.45;8.73;;;;;;;11.72;100.00;100082.81;6204317;28;20045;-76
2022/05/02 04:42:48;;;;;;;14.45;8.63;;;;;;;11.86;98.03;100087.94;6204050;28;20045;-76
2022/05/02 04:45:48;;;;;;;14.70;8.77;;;;;;;11.99;97.18;100075.78;6221609;28;20042;-76
2022/05/02 04:48:49;;;;;;;14.85;8.65;;;;;;;12.14;98.70;100083.53;6204014;28;20049;-74
2022/05/02 04:51:50;;;;;;;14.65;8.48;;;;;;;12.30;100.00;100081.56;6221469;28;20049;-73
2022/05/02 04:54:51;;;;;;;15.77;9.20;;;;;;;12.42;97.46;100080.72;6204295;28;20045;-73
2022/05/02 04:57:51;;;;;;;16.75;9.18;;;;;;;12.43;98.58;100085.00;6205639;28;20414;-73
2022/05/02 05:00:52;;;;;;;18.77;8.55;;;;;;;12.66;96.46;100083.47;6224657;28;20058;-73
2022/05/02 05:03:53;;;;;;;13.40;8.27;;;;;;;12.77;95.73;100085.31;6208182;28;20429;-73
2022/05/02 05:06:54;;;;;;;15.65;8.82;;;;;;;12.89;94.97;100088.88;6224226;28;20054;-73
2022/05/02 05:09:55;;;;;;;13.88;8.57;;;;;;;12.98;95.59;100090.00;6224345;28;20064;-73
2022/05/02 05:13:03;;;;;;;12.07;8.68;;;;;;;13.11;97.67;100090.78;6225378;28;20124;-73
2022/05/02 05:16:26;;;;;;;13.85;8.88;;;;;;;13.24;94.05;100091.63;6225155;28;20350;-72
2022/05/02 05:19:49;;;;;;;;;;;;;;;13.39;95.41;100094.13;6224588;28;20049;-73
2022/05/02 05:23:18;;;;;;;14.07;8.30;;;;;;;13.55;93.81;100094.69;6239898;28;20500;-72
2022/05/02 05:26:38;;;;;;;15.73;8.68;;;;;;;13.70;94.55;100079.59;6223634;28;20062;-73
2022/05/02 05:30:04;;;;;;;13.32;8.32;;;;;;;13.87;92.50;100091.47;6225238;28;20402;-73
2022/05/02 05:33:42;;;;;;;14.60;7.50;;;;;;;14.05;89.89;100084.00;6240292;28;20049;-73
2022/05/02 05:37:41;;;;;;;13.50;8.02;;;;;;;14.09;91.37;100083.66;6240133;28;20053;-73
2022/05/02 05:40:47;;;;;;;12.18;7.85;;;;;;;14.19;90.89;100083.81;6206790;28;20050;-72
2022/05/02 05:44:12;;;;;;;10.15;7.63;;;;;;;14.24;90.38;100080.84;6234560;28;20050;-73
2022/05/02 05:47:40;;;;;;;13.20;7.07;;;;;;;14.36;89.51;100074.66;6223563;28;20092;-72
2022/05/02 05:50:47;;;;;;;9.30;5.90;;;;;;;14.43;85.89;100081.13;6224325;28;20470;-72
2022/05/02 05:54:00;;;;;;;10.55;6.28;;;;;;;14.50;85.18;100079.69;6223359;28;20049;-73
2022/05/02 05:57:38;;;;;;;12.10;6.20;;;;;;;14.55;86.03;100083.75;6223351;28;20498;-72
2022/05/02 06:00:44;;;;;;;8.45;5.75;;;;;;;14.55;87.21;100075.84;6206910;28;20525;-73
2022/05/02 06:04:07;;;;;;;10.88;5.95;;;;;;;14.57;87.10;100072.19;6224302;28;20052;-73
2022/05/02 06:07:08;;;;;;;7.55;6.20;;;;;;;14.60;86.55;100077.22;6241930;28;20061;-75
2022/05/02 06:10:09;;;;;;;7.78;5.88;;;;;;;14.62;88.82;100079.69;6264326;28;20128;-73
2022/05/02 06:13:15;;;;;;;9.23;6.07;;;;;;;14.78;87.24;100077.56;6239495;28;20045;-76
2022/05/02 06:19:38;;;;;;;11.63;5.90;;;;;;;15.35;84.84;100080.13;6242061;28;20425;-76
2022/05/02 06:22:40;;;;;;;8.43;6.05;;;;;;;15.48;82.29;100088.66;6224985;28;20049;-76
2022/05/02 06:25:45;;;;;;;8.15;5.38;;;;;;;15.67;79.14;100083.59;6233834;28;20403;-76
2022/05/02 06:28:49;;;;;;;6.10;5.15;;;;;;;15.91;79.81;100085.19;6247853;28;20482;-76
2022/05/02 06:31:53;;;;;;;9.40;5.43;;;;;;;15.89;74.69;100081.84;6237344;28;20041;-76
2022/05/02 06:34:53;;;;;;;6.68;4.47;;;;;;;16.00;73.51;100084.44;6218156;28;20050;-73
2022/05/02 06:38:05;;;;;;;6.97;4.47;;;;;;;16.16;73.67;100069.97;6229815;28;20061;-72
2022/05/02 06:41:24;;;;;;;13.35;5.05;;;;;;;16.36;72.04;100079.66;6246892;28;20486;-75
2022/05/02 06:44:37;;;;;;;6.45;4.45;;;;;;;16.51;67.58;100074.88;6243537;28;20124;-73
2022/05/02 06:48:06;;;;;;;10.07;3.90;;;;;;;16.71;64.29;100074.00;6222045;28;20502;-72
2022/05/02 06:51:14;;;;;;;8.40;4.05;;;;;;;16.84;62.98;100072.97;6222217;28;20141;-73
2022/05/02 06:54:36;;;;;;;7.43;3.58;;;;;;;17.06;62.92;100072.75;6221936;28;20049;-73
2022/05/02 06:57:53;;;;;;;5.82;3.60;;;;;;;17.11;60.75;100081.13;6222069;28;20092;-73
2022/05/02 07:01:09;;;;;;;8.48;3.58;;;;;;;17.09;61.05;100087.47;6238515;28;20058;-73
2022/05/02 07:04:13;;;;;;;20.20;3.75;;;;;;;17.03;59.41;100083.59;6223089;28;20202;-73
2022/05/02 07:07:39;;;;;;;9.82;3.20;;;;;;;17.14;58.96;100085.28;6238275;28;20058;-73
2022/05/02 07:10:42;;;;;;;13.82;3.78;;;;;;;17.08;61.21;100085.81;6221597;28;20045;-73
2022/05/02 07:13:57;;;;;;;5.78;3.30;;;;;;;17.20;61.35;100084.75;6221577;28;20049;-73
2022/05/02 07:17:04;;;;;;;19.15;3.60;;;;;;;17.35;59.57;100084.34;6244514;28;20049;-74
2022/05/02 07:20:08;;;;;;;7.00;3.30;;;;;;;17.40;60.19;100084.75;6246668;28;20042;-75
2022/05/02 07:23:27;;;;;;;8.40;3.13;;;;;;;17.60;60.01;100088.25;6245972;28;20053;-75
2022/05/02 07:26:30;;;;;;;8.23;3.47;;;;;;;17.70;59.80;100079.38;6247559;28;20496;-73
2022/05/02 07:29:34;;;;;;;5.88;3.35;;;;;;;17.81;58.83;100077.56;6245919;28;20128;-74
2022/05/02 07:32:36;;;;;;;9.18;3.65;;;;;;;18.01;59.04;100088.97;6229287;28;20561;-74
2022/05/02 07:35:37;;;;;;;5.82;3.47;;;;;;;18.03;56.75;100095.78;6245939;28;20046;-73
2022/05/02 07:38:38;;;;;;;6.63;3.73;;;;;;;18.01;59.35;100092.44;6246708;28;20049;-73
2022/05/02 07:41:40;;;;;;;11.23;3.80;;;;;;;18.13;57.44;100091.31;6246054;28;20049;-73
2022/05/02 07:44:43;;;;;;;;;;;;;;;18.26;57.68;100087.53;6242610;28;20410;-73
2022/05/02 07:47:49;;;;;;;5.47;3.30;;;;;;;18.35;60.33;100089.34;6253512;28;19925;-74
2022/05/02 07:50:52;;;;;;;10.43;4.15;;;;;;;18.62;60.30;100098.31;6204637;28;20058;-73
2022/05/02 07:53:53;;;;;;;7.70;3.72;;;;;;;18.63;56.32;100090.22;6209694;28;20125;-73
2022/05/02 07:57:00;;;;;;;14.23;3.92;;;;;;;18.50;56.94;100095.81;6236740;28;20430;-73
2022/05/02 08:00:03;;;;;;;8.05;4.15;;;;;;;19.17;55.06;100089.56;6221232;28;20045;-73
2022/05/02 08:03:04;;;;;;;9.40;4.03;;;;;;;19.87;56.63;100095.09;6220253;28;20050;-73
2022/05/02 08:06:38;;;;;;;5.83;3.90;;;;;;;20.23;51.33;100087.91;6220772;28;20053;-74
2022/05/02 08:10:17;;;;;;;19.50;3.90;;;;;;;20.13;51.85;100100.44;6211297;28;20118;-73
2022/05/02 08:13:43;;;;;;;6.00;3.88;;;;;;;20.74;50.79;100085.44;6238025;28;20525;-73
2022/05/02 08:16:58;;;;;;;6.88;4.18;;;;;;;20.80;47.36;100089.28;6224879;28;20149;-74
2022/05/02 08:20:21;;;;;;;11.23;3.80;;;;;;;20.69;50.05;100085.06;6220685;28;20524;-74
2022/05/02 08:27:32;;;;;;;12.45;3.63;;;;;;;21.51;43.04;100074.75;6221975;28;20042;-77
2022/05/02 08:30:42;;;;;;;8.13;3.78;;;;;;;21.92;42.05;100080.06;6204291;28;20130;-77
2022/05/02 08:33:59;;;;;;;7.75;3.28;;;;;;;22.04;43.27;100080.56;6231021;28;20379;-77
2022/05/02 08:37:31;;;;;;;9.50;3.25;;;;;;;21.18;43.59;100071.16;6282686;28;20134;-77
2022/05/02 08:41:19;;;;;;;10.30;3.80;;;;;;;20.81;43.37;100073.19;6249909;28;20049;-77
2022/05/02 08:44:33;;;;;;;9.82;4.15;;;;;;;21.62;40.42;100070.94;6231425;28;20064;-77
2022/05/02 08:47:36;;;;;;;7.05;3.35;;;;;;;21.63;43.28;100072.59;6233481;28;20053;-77
2022/05/02 08:51:09;;;;;;;8.20;2.92;;;;;;;21.09;42.44;100068.50;6250601;28;20048;-76
2022/05/02 08:54:30;;;;;;;4.65;2.88;;;;;;;21.20;42.60;100059.38;6249107;28;20520;-77
2022/05/02 08:57:53;;;;;;;8.52;3.30;;;;;;;21.37;42.84;100054.13;6250220;28;20052;-76
2022/05/02 09:01:15;;;;;;;7.65;3.42;;;;;;;21.30;42.71;100054.78;6232710;28;20053;-77
2022/05/02 09:04:22;;;;;;;8.52;3.60;;;;;;;21.10;43.51;100053.41;6249120;28;20061;-73
2022/05/02 09:07:47;;;;;;;5.80;3.38;;;;;;;21.33;43.23;100048.28;6250270;28;20049;-74
2022/05/02 09:11:32;;;;;;;6.97;2.85;;;;;;;22.10;41.03;100051.50;6250198;28;20049;-73
2022/05/02 09:14:36;;;;;;;7.18;2.58;;;;;;;22.26;39.62;100045.38;6192275;28;20104;-74
2022/05/02 09:18:02;;;;;;;4.25;3.22;;;;;;;22.70;39.53;100046.72;6232307;28;20493;-74
2022/05/02 09:21:32;;;;;;;9.93;4.82;;;;;;;21.82;45.24;100039.56;6250025;28;20555;-73
2022/05/02 09:25:10;;;;;;;10.77;4.57;;;;;;;21.31;46.73;100037.88;6248567;28;20049;-73
2022/05/02 09:28:58;;;;;;;7.60;5.00;;;;;;;21.08;49.21;100042.13;6249812;28;20046;-73
2022/05/02 09:32:07;;;;;;;10.00;5.78;;;;;;;20.98;49.07;100038.78;6189811;28;20053;-74
2022/05/02 09:35:14;;;;;;;12.25;5.20;;;;;;;20.87;50.62;100043.38;6191000;28;20621;-73
2022/05/02 09:38:26;;;;;;;8.32;4.63;;;;;;;20.92;50.59;100037.63;6249446;28;20058;-74
2022/05/02 09:41:44;;;;;;;7.53;5.10;;;;;;;20.95;51.79;100037.28;6243579;28;20109;-73
2022/05/02 09:52:15;;;;;;;5.47;4.40;;;;;;;20.03;55.13;100023.72;6234819;28;20054;-73
2022/05/02 09:58:56;;;;;;;10.13;4.65;;;;;;;20.18;55.06;100015.19;6223365;28;20104;-73
2022/05/02 10:02:19;;;;;;;5.63;4.57;;;;;;;20.37;53.12;100014.16;6226300;28;20042;-73
2022/05/02 10:05:46;;;;;;;7.78;4.28;;;;;;;21.49;55.25;100005.88;6247228;28;20057;-74
2022/05/02 10:09:10;;;;;;;8.52;4.68;;;;;;;21.71;49.59;99998.25;6246803;28;20490;-74
2022/05/02 10:12:23;;;;;;;9.25;4.85;;;;;;;22.42;45.64;99990.47;6248202;28;20049;-73
2022/05/02 10:16:04;;;;;;;9.88;4.63;;;;;;;21.63;49.95;99982.34;6247116;28;20060;-73
2022/05/02 10:19:16;;;;;;;5.18;4.15;;;;;;;21.52;49.88;99986.97;6248137;28;20076;-73
2022/05/02 10:22:29;;;;;;;;;;;;;;;21.33;45.79;99984.59;6230678;28;20053;-73
2022/05/02 10:25:55;;;;;;;5.43;3.90;;;;;;;21.22;46.80;99975.16;6246816;28;20285;-73
2022/05/02 10:29:08;;;;;;;5.45;2.92;;;;;;;20.85;42.28;99965.00;6230552;28;20053;-73
2022/05/02 10:32:24;;;;;;;3.78;3.03;;;;;;;20.97;42.49;99976.13;6230124;28;20520;-73
2022/05/02 10:35:27;;;;;;;11.05;3.30;;;;;;;20.81;41.81;99971.59;6246683;28;20424;-73
2022/05/02 10:38:30;;;;;;;8.88;3.70;;;;;;;20.78;45.53;99972.78;6246532;28;20057;-73
2022/05/02 10:41:52;;;;;;;6.60;3.20;;;;;;;20.63;46.97;99969.06;6229776;28;20424;-73
2022/05/02 10:45:08;;;;;;;7.45;3.78;;;;;;;20.56;47.42;99970.69;6246457;28;20049;-74
2022/05/02 10:48:18;;;;;;;6.43;3.50;;;;;;;20.54;51.28;99969.00;6246653;28;20046;-73
2022/05/02 10:51:22;;;;;;;6.47;3.72;;;;;;;20.15;45.16;99967.84;6279297;28;20564;-73
2022/05/02 10:54:35;;;;;;;11.32;3.95;;;;;;;20.29;48.09;99967.25;6244272;28;20042;-73
2022/05/02 10:57:50;;;;;;;8.68;3.55;;;;;;;20.29;46.86;99964.59;6246403;28;20042;-74
2022/05/02 11:01:06;;;;;;;17.88;3.00;;;;;;;20.27;47.18;99963.94;6246388;28;20046;-73
2022/05/02 11:04:51;;;;;;;6.85;2.72;;;;;;;20.33;45.36;99956.16;6247485;28;20071;-74
2022/05/02 11:07:54;;;;;;;4.65;2.85;;;;;;;20.48;45.32;99963.53;6279535;28;20053;-73
2022/05/02 11:11:06;;;;;;;4.25;3.25;;;;;;;20.42;44.63;99961.50;6247407;28;20045;-74
2022/05/02 11:14:27;;;;;;;;;;;;;;;20.54;44.87;99955.75;6246552;28;20045;-74
2022/05/02 11:17:58;;;;;;;15.35;7.85;;;;;;;20.66;46.25;99960.81;6240500;28;19928;-73
2022/05/02 11:21:12;;;;;;;8.68;2.95;;;;;;;20.88;46.52;99957.53;6245899;28;20425;-77
2022/05/02 11:24:34;;;;;;;4.00;2.80;;;;;;;20.45;46.72;99951.44;6247321;28;20103;-76
2022/05/02 11:27:44;;;;;;;17.20;3.50;;;;;;;20.87;48.41;99955.06;6245936;28;20140;-77
2022/05/02 11:31:01;;;;;;;6.65;2.75;;;;;;;21.18;45.95;99954.44;6229641;28;20484;-76
2022/05/02 11:34:30;;;;;;;4.28;2.70;;;;;;;20.93;44.41;99949.09;6246112;28;20060;-77
2022/05/02 11:37:56;;;;;;;3.22;2.20;;;;;;;21.09;44.42;99946.47;6243760;28;20414;-76
2022/05/02 11:41:11;;;;;;;3.25;1.90;;;;;;;21.31;43.25;99949.44;6229705;28;20091;-77
2022/05/02 11:44:13;;;;;;;4.93;2.08;;;;;;;21.56;40.10;99941.50;6229403;28;20052;-77
2022/05/02 11:47:43;;;;;;;4.05;1.80;;;;;;;22.26;38.61;99935.59;6232639;28;20042;-77
2022/05/02 11:50:46;;;;;;;3.15;1.70;;;;;;;21.96;35.88;99934.47;6228414;28;20046;-77
2022/05/02 11:53:49;;;;;;;3.17;2.10;;;;;;;21.52;36.24;99928.59;6217258;28;20560;-77
2022/05/02 11:57:07;;;;;;;5.63;2.45;;;;;;;21.37;38.89;99927.56;6243947;28;20053;-77
2022/05/02 12:00:11;;;;;;;6.38;2.47;;;;;;;21.69;39.25;99929.38;6245353;28;20100;-77
2022/05/02 12:03:18;;;;;;;3.72;2.20;;;;;;;21.73;37.69;99930.72;6245563;28;20041;-77
2022/05/02 12:06:31;;;;;;;6.50;2.33;;;;;;;21.49;37.55;99933.41;6241780;28;20053;-77
2022/05/02 12:09:34;;;;;;;4.25;2.13;;;;;;;21.15;44.26;99939.69;6235672;28;20041;-78
2022/05/02 12:12:36;;;;;;;3.80;2.13;;;;;;;20.51;52.90;99937.53;6209135;28;20415;-79
2022/05/02 12:15:53;;;;;;;9.88;2.90;;;;;;;20.01;58.55;99937.47;6227569;28;20502;-82
2022/05/02 12:18:56;;;;;;;5.05;2.13;;;;;;;19.64;58.64;99931.44;6193681;28;20057;-83
2022/05/02 12:22:00;;;;;;;3.63;1.83;;;;;;;18.94;52.47;99934.00;6241827;28;20050;-78
2022/05/02 12:25:05;;;;;;;3.80;1.90;;;;;;;18.70;59.07;99935.38;6241552;28;20053;-78
2022/05/02 12:28:06;;;;;;;4.18;1.88;;;;;;;18.65;61.93;99932.34;6258033;28;20061;-78
2022/05/02 12:31:13;;;;;;;2.10;1.50;;;;;;;18.59;56.10;99930.28;6225361;28;20053;-77
2022/05/02 12:34:14;;;;;;;3.35;1.58;;;;;;;18.59;58.59;99925.00;6226561;28;20048;-77
2022/05/02 12:37:28;;;;;;;1.52;1.35;;;;;;;18.59;57.91;99929.47;6176081;28;20081;-76
2022/05/02 12:40:29;;;;;;;7.90;2.15;;;;;;;18.84;74.05;99928.78;6225777;28;20077;-76
2022/05/02 12:43:44;;;;;;;5.03;2.75;;;;;;;19.07;73.58;99936.28;6248749;28;20041;-76
2022/05/02 12:46:50;;;;;;;2.47;1.75;;;;;;;18.90;59.81;99922.91;6249068;28;20058;-75
2022/05/02 12:50:00;;;;;;;4.53;1.70;;;;;;;18.92;55.83;99923.59;6216531;28;20141;-76
2022/05/02 12:53:01;;;;;;;2.42;1.70;;;;;;;18.81;53.07;99920.31;6249892;28;20052;-75
2022/05/02 12:56:04;;;;;;;9.82;1.77;;;;;;;18.76;53.64;99925.19;6248964;28;20080;-75
2022/05/02 13:02:31;;;;;;;1.75;1.40;;;;;;;19.24;60.44;99911.63;6249894;28;20456;-75
2022/05/02 13:05:33;;;;;;;3.05;1.35;;;;;;;19.58;59.78;99910.91;6248888;28;20493;-75
2022/05/02 13:08:38;;;;;;;5.57;2.10;;;;;;;19.70;55.64;99899.06;6215833;28;20053;-75
2022/05/02 13:11:39;;;;;;;1.88;1.42;;;;;;;19.59;55.99;99899.31;6249328;28;20042;-74
2022/05/02 13:14:44;;;;;;;4.20;1.50;;;;;;;19.71;51.32;99894.63;6248198;28;20092;-75
2022/05/02 13:17:46;;;;;;;2.90;1.90;;;;;;;19.42;55.56;99889.63;6230407;28;20141;-74
2022/05/02 13:21:12;;;;;;;4.15;1.60;;;;;;;19.23;48.61;99886.19;6215691;28;20053;-74
2022/05/02 13:24:16;;;;;;;9.57;5.88;;;;;;;19.63;46.66;99897.19;6248509;28;20041;-74
2022/05/02 13:27:41;;;;;;;4.07;2.60;;;;;;;19.68;49.58;99884.31;6232066;28;20425;-74
2022/05/02 13:30:51;;;;;;;2.20;1.30;;;;;;;19.51;36.54;99881.56;6249303;28;20042;-74
2022/05/02 13:33:54;;;;;;;2.50;1.30;;;;;;;19.57;38.85;99888.06;6231216;28;20052;-74
2022/05/02 13:37:03;;;;;;;1.75;1.20;;;;;;;19.52;40.74;99861.25;6231616;28;20138;-74
2022/05/02 13:40:13;;;;;;;1.50;1.05;;;;;;;19.75;36.82;99869.50;6231524;28;20057;-74
2022/05/02 13:43:43;;;;;;;2.22;1.35;;;;;;;19.86;39.81;99861.28;6248988;28;20049;-74
2022/05/02 13:47:02;;;;;;;2.85;1.30;;;;;;;20.02;41.60;99863.16;6240597;28;20428;-74
2022/05/02 13:50:11;;;;;;;3.85;1.30;;;;;;;20.13;38.98;99854.09;6223913;28;20149;-75
2022/05/02 13:53:35;;;;;;;2.45;1.33;;;;;;;20.32;40.19;99861.78;6247055;28;20059;-74
2022/05/02 13:57:04;;;;;;;5.55;1.90;;;;;;;20.28;38.50;99855.16;6233251;28;20049;-79
2022/05/02 14:09:59;;;;;;;3.80;1.75;;;;;;;20.16;42.07;99855.59;6246972;28;20054;-75
2022/05/02 14:13:16;;;;;;;6.05;1.80;;;;;;;20.10;43.18;99854.44;6246954;28;20104;-74
2022/05/02 14:16:17;;;;;;;6.47;1.88;;;;;;;20.10;41.74;99859.75;6232430;28;20058;-75
2022/05/02 14:19:23;;;;;;;6.77;1.70;;;;;;;20.06;40.26;99855.75;6233541;28;20528;-75
2022/05/02 14:22:33;;;;;;;6.35;1.95;;;;;;;19.90;39.87;99845.91;6230996;28;20049;-75
2022/05/02 14:25:45;;;;;;;3.08;1.70;;;;;;;19.92;42.08;99844.75;6233535;28;20427;-75
2022/05/02 14:28:48;;;;;;;;;;;;;;;19.81;40.61;99844.19;6230104;28;20045;-75
2022/05/02 14:32:01;;;;;;;3.53;1.70;;;;;;;19.90;40.65;99854.69;6247011;28;19928;-75
2022/05/02 14:35:02;;;;;;;8.63;2.13;;;;;;;19.98;41.74;99851.25;6246900;28;20049;-75
2022/05/02 14:38:05;;;;;;;2.43;1.70;;;;;;;19.77;41.15;99853.44;6236085;28;20529;-75
2022/05/02 14:41:07;;;;;;;3.63;1.80;;;;;;;19.68;40.98;99855.19;6222287;28;20494;-74
2022/05/02 14:44:08;;;;;;;2.38;1.70;;;;;;;19.60;41.59;99844.56;6208972;28;20575;-74
2022/05/02 14:47:12;;;;;;;3.57;1.83;;;;;;;19.55;41.27;99845.03;6246827;28;20092;-74
2022/05/02 14:50:14;;;;;;;4.32;1.75;;;;;;;19.68;42.46;99855.19;6231089;28;20298;-75
2022/05/02 14:53:17;;;;;;;4.87;2.00;;;;;;;19.77;44.81;99858.75;6225495;28;20046;-75
2022/05/02 14:56:19;;;;;;;7.65;2.55;;;;;;;20.02;44.15;99857.06;6223441;28;20461;-75
2022/05/02 14:59:23;;;;;;;4.72;2.28;;;;;;;20.01;47.51;99856.19;6222098;28;20053;-75
2022/05/02 15:02:28;;;;;;;3.55;2.03;;;;;;;20.00;45.53;99851.09;6236612;28;20508;-75
2022/05/02 15:05:34;;;;;;;3.25;1.80;;;;;;;20.07;45.12;99847.63;6246428;28;20049;-75
2022/05/02 15:08:52;;;;;;;4.80;1.70;;;;;;;20.24;45.22;99848.53;6214340;28;20156;-74